sensor_id;sensor_type;location;lat;lon;timestamp;P1;durP1;ratioP1;P2;durP2;ratioP2
75234;SDS011;63817;51.228;-1.472;2023-02-15T00:01:05;49.85;;;27.25;;
75234;SDS011;63817;51.228;-1.472;2023-02-15T00:03:31;54.58;;;28.42;;
75234;SDS011;63817;51.228;-1.472;2023-02-15T00:05:57;53.45;;;28.63;;
75234;SDS011;63817;51.228;-1.472;2023-02-15T00:08:22;49.83;;;26.88;;
75234;SDS011;63817;51.228;-1.472;2023-02-15T00:10:48;50.28;;;26.35;;
75234;SDS011;63817;51.228;-1.472;2023-02-15T00:13:13;47.63;;;25.02;;
75234;SDS011;63817;51.228;-1.472;2023-02-15T00:15:38;46.33;;;25.08;;
75234;SDS011;63817;51.228;-1.472;2023-02-15T00:18:04;48.85;;;24.58;;
75234;SDS011;63817;51.228;-1.472;2023-02-15T00:20:29;46.03;;;25.85;;
75234;SDS011;63817;51.228;-1.472;2023-02-15T00:22:55;54.45;;;26.60;;
75234;SDS011;63817;51.228;-1.472;2023-02-15T00:25:20;53.22;;;27.10;;
75234;SDS011;63817;51.228;-1.472;2023-02-15T00:27:45;56.28;;;28.40;;
75234;SDS011;63817;51.228;-1.472;2023-02-15T00:30:11;52.78;;;27.52;;
75234;SDS011;63817;51.228;-1.472;2023-02-15T00:32:37;60.30;;;28.65;;
75234;SDS011;63817;51.228;-1.472;2023-02-15T00:35:02;61.17;;;30.27;;
75234;SDS011;63817;51.228;-1.472;2023-02-15T00:37:28;55.00;;;28.58;;
75234;SDS011;63817;51.228;-1.472;2023-02-15T00:39:53;50.78;;;29.40;;
75234;SDS011;63817;51.228;-1.472;2023-02-15T00:42:18;55.03;;;29.98;;
75234;SDS011;63817;51.228;-1.472;2023-02-15T00:44:44;58.30;;;28.77;;
75234;SDS011;63817;51.228;-1.472;2023-02-15T00:47:09;48.72;;;26.05;;
75234;SDS011;63817;51.228;-1.472;2023-02-15T00:49:34;57.08;;;28.52;;
75234;SDS011;63817;51.228;-1.472;2023-02-15T00:52:00;49.85;;;28.52;;
75234;SDS011;63817;51.228;-1.472;2023-02-15T00:54:25;51.15;;;25.95;;
75234;SDS011;63817;51.228;-1.472;2023-02-15T00:56:51;51.55;;;25.23;;
75234;SDS011;63817;51.228;-1.472;2023-02-15T00:59:16;49.25;;;25.90;;
75234;SDS011;63817;51.228;-1.472;2023-02-15T01:01:41;47.97;;;25.10;;
75234;SDS011;63817;51.228;-1.472;2023-02-15T01:04:07;45.38;;;26.05;;
75234;SDS011;63817;51.228;-1.472;2023-02-15T01:06:32;46.92;;;25.42;;
75234;SDS011;63817;51.228;-1.472;2023-02-15T01:08:58;48.50;;;25.70;;
75234;SDS011;63817;51.228;-1.472;2023-02-15T01:11:23;49.53;;;25.20;;
75234;SDS011;63817;51.228;-1.472;2023-02-15T01:13:49;53.50;;;25.55;;
75234;SDS011;63817;51.228;-1.472;2023-02-15T01:16:16;44.78;;;24.50;;
75234;SDS011;63817;51.228;-1.472;2023-02-15T01:18:42;45.42;;;25.23;;
75234;SDS011;63817;51.228;-1.472;2023-02-15T01:21:12;48.75;;;25.42;;
75234;SDS011;63817;51.228;-1.472;2023-02-15T01:23:42;45.95;;;24.23;;
75234;SDS011;63817;51.228;-1.472;2023-02-15T01:26:08;47.08;;;26.02;;
75234;SDS011;63817;51.228;-1.472;2023-02-15T01:28:34;49.13;;;26.55;;
75234;SDS011;63817;51.228;-1.472;2023-02-15T01:31:03;47.13;;;25.17;;
75234;SDS011;63817;51.228;-1.472;2023-02-15T01:35:58;44.65;;;23.45;;
75234;SDS011;63817;51.228;-1.472;2023-02-15T01:38:24;52.03;;;24.95;;
75234;SDS011;63817;51.228;-1.472;2023-02-15T01:40:53;46.60;;;24.27;;
75234;SDS011;63817;51.228;-1.472;2023-02-15T01:43:18;50.05;;;24.88;;
75234;SDS011;63817;51.228;-1.472;2023-02-15T01:45:44;47.65;;;24.17;;
75234;SDS011;63817;51.228;-1.472;2023-02-15T01:50:50;48.05;;;23.95;;
75234;SDS011;63817;51.228;-1.472;2023-02-15T01:55:57;53.47;;;25.52;;
75234;SDS011;63817;51.228;-1.472;2023-02-15T01:58:25;47.17;;;24.48;;
75234;SDS011;63817;51.228;-1.472;2023-02-15T02:00:51;51.50;;;25.40;;
75234;SDS011;63817;51.228;-1.472;2023-02-15T02:03:19;48.58;;;23.77;;
75234;SDS011;63817;51.228;-1.472;2023-02-15T02:05:56;48.22;;;26.10;;
75234;SDS011;63817;51.228;-1.472;2023-02-15T02:08:21;46.08;;;24.92;;
75234;SDS011;63817;51.228;-1.472;2023-02-15T02:10:46;48.13;;;24.80;;
75234;SDS011;63817;51.228;-1.472;2023-02-15T02:13:12;48.80;;;24.58;;
75234;SDS011;63817;51.228;-1.472;2023-02-15T02:18:52;57.00;;;27.73;;
75234;SDS011;63817;51.228;-1.472;2023-02-15T02:35:18;52.00;;;27.00;;
75234;SDS011;63817;51.228;-1.472;2023-02-15T02:43:40;59.67;;;28.88;;
75234;SDS011;63817;51.228;-1.472;2023-02-15T02:46:20;52.95;;;26.85;;
75234;SDS011;63817;51.228;-1.472;2023-02-15T02:48:53;55.63;;;27.70;;
75234;SDS011;63817;51.228;-1.472;2023-02-15T02:51:19;62.85;;;27.15;;
75234;SDS011;63817;51.228;-1.472;2023-02-15T02:53:54;54.97;;;27.58;;
75234;SDS011;63817;51.228;-1.472;2023-02-15T02:59:09;60.35;;;30.73;;
75234;SDS011;63817;51.228;-1.472;2023-02-15T03:01:44;61.05;;;30.77;;
75234;SDS011;63817;51.228;-1.472;2023-02-15T03:04:14;59.45;;;29.83;;
75234;SDS011;63817;51.228;-1.472;2023-02-15T03:07:15;60.10;;;30.42;;
75234;SDS011;63817;51.228;-1.472;2023-02-15T03:12:28;61.00;;;31.98;;
75234;SDS011;63817;51.228;-1.472;2023-02-15T03:17:28;68.05;;;32.10;;
75234;SDS011;63817;51.228;-1.472;2023-02-15T03:19:58;73.13;;;37.17;;
75234;SDS011;63817;51.228;-1.472;2023-02-15T03:22:28;78.80;;;38.33;;
75234;SDS011;63817;51.228;-1.472;2023-02-15T03:25:17;69.85;;;35.53;;
75234;SDS011;63817;51.228;-1.472;2023-02-15T03:27:47;68.80;;;34.13;;
75234;SDS011;63817;51.228;-1.472;2023-02-15T03:33:07;79.65;;;37.67;;
75234;SDS011;63817;51.228;-1.472;2023-02-15T03:35:40;74.10;;;35.35;;
75234;SDS011;63817;51.228;-1.472;2023-02-15T03:38:10;73.30;;;38.05;;
75234;SDS011;63817;51.228;-1.472;2023-02-15T03:40:43;72.90;;;36.70;;
75234;SDS011;63817;51.228;-1.472;2023-02-15T03:43:31;71.50;;;37.58;;
75234;SDS011;63817;51.228;-1.472;2023-02-15T03:45:59;77.63;;;38.50;;
75234;SDS011;63817;51.228;-1.472;2023-02-15T03:48:37;80.07;;;39.13;;
75234;SDS011;63817;51.228;-1.472;2023-02-15T03:51:05;82.13;;;38.85;;
75234;SDS011;63817;51.228;-1.472;2023-02-15T03:53:52;78.75;;;38.80;;
75234;SDS011;63817;51.228;-1.472;2023-02-15T03:56:18;82.30;;;39.75;;
75234;SDS011;63817;51.228;-1.472;2023-02-15T03:58:43;84.65;;;41.75;;
75234;SDS011;63817;51.228;-1.472;2023-02-15T04:01:32;86.30;;;41.83;;
75234;SDS011;63817;51.228;-1.472;2023-02-15T04:04:19;91.50;;;44.08;;
75234;SDS011;63817;51.228;-1.472;2023-02-15T04:06:46;94.78;;;43.75;;
75234;SDS011;63817;51.228;-1.472;2023-02-15T04:09:11;92.88;;;45.45;;
75234;SDS011;63817;51.228;-1.472;2023-02-15T04:11:56;88.22;;;41.45;;
75234;SDS011;63817;51.228;-1.472;2023-02-15T04:14:22;92.00;;;43.85;;
75234;SDS011;63817;51.228;-1.472;2023-02-15T04:17:06;98.20;;;45.05;;
75234;SDS011;63817;51.228;-1.472;2023-02-15T04:19:32;89.05;;;44.30;;
75234;SDS011;63817;51.228;-1.472;2023-02-15T04:22:16;93.43;;;43.58;;
75234;SDS011;63817;51.228;-1.472;2023-02-15T04:25:00;100.70;;;44.15;;
75234;SDS011;63817;51.228;-1.472;2023-02-15T04:27:38;96.05;;;47.60;;
75234;SDS011;63817;51.228;-1.472;2023-02-15T04:30:05;96.30;;;45.95;;
75234;SDS011;63817;51.228;-1.472;2023-02-15T04:32:31;111.85;;;51.28;;
75234;SDS011;63817;51.228;-1.472;2023-02-15T04:34:57;103.25;;;48.50;;
75234;SDS011;63817;51.228;-1.472;2023-02-15T04:37:22;102.47;;;49.38;;
75234;SDS011;63817;51.228;-1.472;2023-02-15T04:39:48;107.88;;;51.78;;
75234;SDS011;63817;51.228;-1.472;2023-02-15T04:42:14;94.28;;;46.35;;
75234;SDS011;63817;51.228;-1.472;2023-02-15T04:44:40;62.00;;;30.20;;
75234;SDS011;63817;51.228;-1.472;2023-02-15T04:47:24;99.32;;;44.17;;
75234;SDS011;63817;51.228;-1.472;2023-02-15T04:49:49;109.35;;;50.65;;
75234;SDS011;63817;51.228;-1.472;2023-02-15T04:52:15;120.15;;;52.85;;
75234;SDS011;63817;51.228;-1.472;2023-02-15T04:54:42;110.68;;;51.25;;
75234;SDS011;63817;51.228;-1.472;2023-02-15T04:57:08;118.63;;;53.22;;
75234;SDS011;63817;51.228;-1.472;2023-02-15T04:59:33;105.57;;;52.60;;
75234;SDS011;63817;51.228;-1.472;2023-02-15T05:01:59;107.07;;;51.35;;
75234;SDS011;63817;51.228;-1.472;2023-02-15T05:04:24;104.88;;;49.65;;
75234;SDS011;63817;51.228;-1.472;2023-02-15T05:06:49;103.85;;;49.40;;
75234;SDS011;63817;51.228;-1.472;2023-02-15T05:09:15;108.72;;;49.65;;
75234;SDS011;63817;51.228;-1.472;2023-02-15T05:11:40;105.75;;;51.30;;
75234;SDS011;63817;51.228;-1.472;2023-02-15T05:14:06;106.22;;;51.08;;
75234;SDS011;63817;51.228;-1.472;2023-02-15T05:16:32;117.80;;;54.42;;
75234;SDS011;63817;51.228;-1.472;2023-02-15T05:18:57;111.72;;;50.90;;
75234;SDS011;63817;51.228;-1.472;2023-02-15T05:21:22;104.35;;;49.67;;
75234;SDS011;63817;51.228;-1.472;2023-02-15T05:23:48;106.50;;;49.45;;
75234;SDS011;63817;51.228;-1.472;2023-02-15T05:26:16;99.93;;;46.20;;
75234;SDS011;63817;51.228;-1.472;2023-02-15T05:29:01;103.65;;;48.42;;
75234;SDS011;63817;51.228;-1.472;2023-02-15T05:31:27;104.57;;;50.38;;
75234;SDS011;63817;51.228;-1.472;2023-02-15T05:33:52;98.00;;;47.10;;
75234;SDS011;63817;51.228;-1.472;2023-02-15T05:36:18;105.82;;;50.17;;
75234;SDS011;63817;51.228;-1.472;2023-02-15T05:38:43;99.88;;;46.90;;
75234;SDS011;63817;51.228;-1.472;2023-02-15T05:41:09;104.35;;;48.22;;
75234;SDS011;63817;51.228;-1.472;2023-02-15T05:43:35;102.50;;;46.80;;
75234;SDS011;63817;51.228;-1.472;2023-02-15T05:46:01;103.55;;;49.53;;
75234;SDS011;63817;51.228;-1.472;2023-02-15T05:48:27;101.13;;;48.47;;
75234;SDS011;63817;51.228;-1.472;2023-02-15T05:51:00;99.80;;;46.60;;
75234;SDS011;63817;51.228;-1.472;2023-02-15T05:53:26;93.63;;;43.10;;
75234;SDS011;63817;51.228;-1.472;2023-02-15T05:55:52;96.38;;;45.08;;
75234;SDS011;63817;51.228;-1.472;2023-02-15T05:58:18;96.35;;;45.17;;
75234;SDS011;63817;51.228;-1.472;2023-02-15T06:00:44;103.75;;;49.65;;
75234;SDS011;63817;51.228;-1.472;2023-02-15T06:03:09;113.32;;;52.63;;
75234;SDS011;63817;51.228;-1.472;2023-02-15T06:05:35;102.05;;;48.45;;
75234;SDS011;63817;51.228;-1.472;2023-02-15T06:08:00;106.68;;;47.85;;
75234;SDS011;63817;51.228;-1.472;2023-02-15T06:10:26;106.35;;;48.05;;
75234;SDS011;63817;51.228;-1.472;2023-02-15T06:12:51;101.45;;;49.17;;
75234;SDS011;63817;51.228;-1.472;2023-02-15T06:15:16;105.13;;;48.55;;
75234;SDS011;63817;51.228;-1.472;2023-02-15T06:17:42;106.13;;;48.55;;
75234;SDS011;63817;51.228;-1.472;2023-02-15T06:20:08;103.05;;;46.83;;
75234;SDS011;63817;51.228;-1.472;2023-02-15T06:22:34;103.88;;;49.03;;
75234;SDS011;63817;51.228;-1.472;2023-02-15T06:24:59;107.43;;;45.17;;
75234;SDS011;63817;51.228;-1.472;2023-02-15T06:27:25;98.82;;;47.63;;
75234;SDS011;63817;51.228;-1.472;2023-02-15T06:29:50;99.93;;;47.08;;
75234;SDS011;63817;51.228;-1.472;2023-02-15T06:32:15;105.47;;;46.55;;
75234;SDS011;63817;51.228;-1.472;2023-02-15T06:34:41;102.57;;;47.25;;
75234;SDS011;63817;51.228;-1.472;2023-02-15T06:37:06;107.82;;;48.78;;
75234;SDS011;63817;51.228;-1.472;2023-02-15T06:39:33;102.93;;;48.20;;
75234;SDS011;63817;51.228;-1.472;2023-02-15T06:41:58;113.25;;;50.80;;
75234;SDS011;63817;51.228;-1.472;2023-02-15T06:44:24;98.68;;;46.33;;
75234;SDS011;63817;51.228;-1.472;2023-02-15T06:46:49;101.13;;;47.50;;
75234;SDS011;63817;51.228;-1.472;2023-02-15T06:49:15;92.32;;;45.47;;
75234;SDS011;63817;51.228;-1.472;2023-02-15T06:51:40;98.22;;;46.60;;
75234;SDS011;63817;51.228;-1.472;2023-02-15T06:54:05;95.47;;;46.83;;
75234;SDS011;63817;51.228;-1.472;2023-02-15T06:56:31;98.38;;;46.33;;
75234;SDS011;63817;51.228;-1.472;2023-02-15T06:58:56;104.05;;;48.58;;
75234;SDS011;63817;51.228;-1.472;2023-02-15T07:01:22;93.20;;;45.65;;
75234;SDS011;63817;51.228;-1.472;2023-02-15T07:03:48;99.10;;;46.75;;
75234;SDS011;63817;51.228;-1.472;2023-02-15T07:06:13;99.53;;;45.92;;
75234;SDS011;63817;51.228;-1.472;2023-02-15T07:08:38;105.15;;;48.90;;
75234;SDS011;63817;51.228;-1.472;2023-02-15T07:11:04;95.55;;;45.65;;
75234;SDS011;63817;51.228;-1.472;2023-02-15T07:14:00;96.25;;;43.80;;
75234;SDS011;63817;51.228;-1.472;2023-02-15T07:16:25;94.53;;;45.80;;
75234;SDS011;63817;51.228;-1.472;2023-02-15T07:18:50;98.95;;;45.53;;
75234;SDS011;63817;51.228;-1.472;2023-02-15T07:21:16;113.13;;;49.72;;
75234;SDS011;63817;51.228;-1.472;2023-02-15T07:23:41;113.57;;;51.63;;
75234;SDS011;63817;51.228;-1.472;2023-02-15T07:26:07;109.65;;;49.22;;
75234;SDS011;63817;51.228;-1.472;2023-02-15T07:28:33;99.18;;;45.67;;
75234;SDS011;63817;51.228;-1.472;2023-02-15T07:31:01;98.50;;;46.80;;
75234;SDS011;63817;51.228;-1.472;2023-02-15T07:33:33;112.05;;;48.00;;
75234;SDS011;63817;51.228;-1.472;2023-02-15T07:35:59;97.35;;;47.22;;
75234;SDS011;63817;51.228;-1.472;2023-02-15T07:38:29;104.22;;;49.22;;
75234;SDS011;63817;51.228;-1.472;2023-02-15T07:41:05;106.32;;;48.67;;
75234;SDS011;63817;51.228;-1.472;2023-02-15T07:43:35;111.57;;;50.97;;
75234;SDS011;63817;51.228;-1.472;2023-02-15T07:46:03;109.03;;;48.65;;
75234;SDS011;63817;51.228;-1.472;2023-02-15T07:48:29;95.95;;;47.42;;
75234;SDS011;63817;51.228;-1.472;2023-02-15T07:50:58;111.05;;;50.22;;
75234;SDS011;63817;51.228;-1.472;2023-02-15T07:53:27;106.72;;;49.20;;
75234;SDS011;63817;51.228;-1.472;2023-02-15T07:55:53;105.30;;;51.13;;
75234;SDS011;63817;51.228;-1.472;2023-02-15T07:58:19;115.95;;;50.97;;
75234;SDS011;63817;51.228;-1.472;2023-02-15T08:00:45;104.88;;;51.13;;
75234;SDS011;63817;51.228;-1.472;2023-02-15T08:03:23;126.70;;;58.40;;
75234;SDS011;63817;51.228;-1.472;2023-02-15T08:05:54;120.38;;;55.22;;
75234;SDS011;63817;51.228;-1.472;2023-02-15T08:08:21;130.10;;;62.78;;
75234;SDS011;63817;51.228;-1.472;2023-02-15T08:16:37;125.88;;;58.58;;
75234;SDS011;63817;51.228;-1.472;2023-02-15T08:19:10;120.25;;;56.65;;
75234;SDS011;63817;51.228;-1.472;2023-02-15T08:21:49;128.77;;;58.67;;
75234;SDS011;63817;51.228;-1.472;2023-02-15T08:24:22;124.70;;;58.17;;
75234;SDS011;63817;51.228;-1.472;2023-02-15T08:26:48;117.75;;;55.55;;
75234;SDS011;63817;51.228;-1.472;2023-02-15T08:29:14;117.65;;;56.25;;
75234;SDS011;63817;51.228;-1.472;2023-02-15T08:31:41;122.00;;;58.17;;
75234;SDS011;63817;51.228;-1.472;2023-02-15T08:34:07;112.07;;;54.58;;
75234;SDS011;63817;51.228;-1.472;2023-02-15T08:36:34;115.28;;;56.83;;
75234;SDS011;63817;51.228;-1.472;2023-02-15T08:39:02;117.75;;;56.78;;
75234;SDS011;63817;51.228;-1.472;2023-02-15T08:41:30;113.90;;;55.55;;
75234;SDS011;63817;51.228;-1.472;2023-02-15T08:44:01;118.75;;;58.70;;
75234;SDS011;63817;51.228;-1.472;2023-02-15T08:46:28;107.05;;;53.88;;
75234;SDS011;63817;51.228;-1.472;2023-02-15T08:48:55;117.63;;;52.83;;
75234;SDS011;63817;51.228;-1.472;2023-02-15T08:51:22;108.45;;;55.45;;
75234;SDS011;63817;51.228;-1.472;2023-02-15T08:53:50;108.00;;;53.80;;
75234;SDS011;63817;51.228;-1.472;2023-02-15T08:56:17;118.90;;;56.63;;
75234;SDS011;63817;51.228;-1.472;2023-02-15T08:58:45;124.30;;;59.45;;
75234;SDS011;63817;51.228;-1.472;2023-02-15T09:01:11;114.45;;;57.45;;
75234;SDS011;63817;51.228;-1.472;2023-02-15T09:03:38;106.90;;;56.25;;
75234;SDS011;63817;51.228;-1.472;2023-02-15T09:06:05;126.10;;;58.90;;
75234;SDS011;63817;51.228;-1.472;2023-02-15T09:08:30;120.00;;;58.53;;
75234;SDS011;63817;51.228;-1.472;2023-02-15T09:16:18;123.95;;;60.50;;
75234;SDS011;63817;51.228;-1.472;2023-02-15T09:18:45;117.13;;;57.38;;
75234;SDS011;63817;51.228;-1.472;2023-02-15T09:21:11;99.47;;;53.25;;
75234;SDS011;63817;51.228;-1.472;2023-02-15T09:23:42;105.00;;;52.80;;
75234;SDS011;63817;51.228;-1.472;2023-02-15T09:26:12;103.57;;;50.92;;
75234;SDS011;63817;51.228;-1.472;2023-02-15T09:28:39;87.88;;;47.53;;
75234;SDS011;63817;51.228;-1.472;2023-02-15T09:31:15;84.00;;;46.35;;
75234;SDS011;63817;51.228;-1.472;2023-02-15T09:33:42;85.78;;;45.55;;
75234;SDS011;63817;51.228;-1.472;2023-02-15T09:36:31;72.57;;;41.63;;
75234;SDS011;63817;51.228;-1.472;2023-02-15T09:39:04;68.65;;;39.75;;
75234;SDS011;63817;51.228;-1.472;2023-02-15T09:41:48;72.40;;;41.35;;
75234;SDS011;63817;51.228;-1.472;2023-02-15T09:50:04;66.25;;;39.70;;
75234;SDS011;63817;51.228;-1.472;2023-02-15T09:53:08;65.45;;;39.50;;
75234;SDS011;63817;51.228;-1.472;2023-02-15T09:56:00;62.75;;;38.53;;
75234;SDS011;63817;51.228;-1.472;2023-02-15T09:58:51;64.85;;;38.88;;
75234;SDS011;63817;51.228;-1.472;2023-02-15T10:01:35;64.88;;;37.25;;
75234;SDS011;63817;51.228;-1.472;2023-02-15T10:21:01;57.47;;;34.30;;
75234;SDS011;63817;51.228;-1.472;2023-02-15T10:34:39;49.03;;;29.60;;
75234;SDS011;63817;51.228;-1.472;2023-02-15T10:37:58;47.60;;;30.00;;
75234;SDS011;63817;51.228;-1.472;2023-02-15T10:47:53;49.42;;;28.50;;
75234;SDS011;63817;51.228;-1.472;2023-02-15T10:50:36;45.63;;;28.00;;
75234;SDS011;63817;51.228;-1.472;2023-02-15T10:53:13;48.38;;;27.92;;
75234;SDS011;63817;51.228;-1.472;2023-02-15T11:07:49;40.22;;;27.10;;
75234;SDS011;63817;51.228;-1.472;2023-02-15T11:12:43;44.80;;;27.42;;
75234;SDS011;63817;51.228;-1.472;2023-02-15T11:17:46;42.17;;;25.42;;
75234;SDS011;63817;51.228;-1.472;2023-02-15T11:20:21;41.40;;;25.65;;
75234;SDS011;63817;51.228;-1.472;2023-02-15T11:22:56;41.83;;;25.55;;
75234;SDS011;63817;51.228;-1.472;2023-02-15T11:25:32;36.45;;;25.00;;
75234;SDS011;63817;51.228;-1.472;2023-02-15T11:27:58;40.58;;;25.75;;
75234;SDS011;63817;51.228;-1.472;2023-02-15T11:30:28;39.05;;;25.30;;
75234;SDS011;63817;51.228;-1.472;2023-02-15T11:32:58;43.67;;;25.40;;
75234;SDS011;63817;51.228;-1.472;2023-02-15T11:35:31;38.00;;;24.42;;
75234;SDS011;63817;51.228;-1.472;2023-02-15T11:38:01;42.42;;;25.63;;
75234;SDS011;63817;51.228;-1.472;2023-02-15T11:40:31;43.15;;;25.48;;
75234;SDS011;63817;51.228;-1.472;2023-02-15T11:43:04;40.67;;;25.13;;
75234;SDS011;63817;51.228;-1.472;2023-02-15T11:45:35;45.10;;;24.95;;
75234;SDS011;63817;51.228;-1.472;2023-02-15T11:48:01;42.70;;;26.42;;
75234;SDS011;63817;51.228;-1.472;2023-02-15T11:50:35;42.63;;;26.92;;
75234;SDS011;63817;51.228;-1.472;2023-02-15T11:53:02;43.50;;;25.20;;
75234;SDS011;63817;51.228;-1.472;2023-02-15T11:55:31;46.63;;;25.50;;
75234;SDS011;63817;51.228;-1.472;2023-02-15T11:58:42;38.47;;;25.45;;
75234;SDS011;63817;51.228;-1.472;2023-02-15T12:00:50;42.50;;;25.77;;
75234;SDS011;63817;51.228;-1.472;2023-02-15T12:03:21;40.20;;;25.63;;
75234;SDS011;63817;51.228;-1.472;2023-02-15T12:05:53;40.90;;;25.00;;
75234;SDS011;63817;51.228;-1.472;2023-02-15T12:08:23;39.63;;;24.65;;
75234;SDS011;63817;51.228;-1.472;2023-02-15T12:11:00;37.38;;;23.95;;
75234;SDS011;63817;51.228;-1.472;2023-02-15T12:13:29;44.95;;;26.20;;
75234;SDS011;63817;51.228;-1.472;2023-02-15T12:15:55;44.25;;;25.45;;
75234;SDS011;63817;51.228;-1.472;2023-02-15T12:21:07;36.80;;;24.23;;
75234;SDS011;63817;51.228;-1.472;2023-02-15T12:23:39;38.85;;;23.20;;
75234;SDS011;63817;51.228;-1.472;2023-02-15T12:26:12;34.15;;;22.05;;
75234;SDS011;63817;51.228;-1.472;2023-02-15T12:28:39;36.78;;;22.67;;
75234;SDS011;63817;51.228;-1.472;2023-02-15T12:34:21;44.00;;;22.00;;
75234;SDS011;63817;51.228;-1.472;2023-02-15T12:36:48;36.80;;;21.58;;
75234;SDS011;63817;51.228;-1.472;2023-02-15T12:39:24;34.75;;;22.42;;
75234;SDS011;63817;51.228;-1.472;2023-02-15T12:44:19;40.88;;;20.35;;
75234;SDS011;63817;51.228;-1.472;2023-02-15T12:47:02;27.65;;;19.65;;
75234;SDS011;63817;51.228;-1.472;2023-02-15T12:49:31;38.08;;;21.80;;
75234;SDS011;63817;51.228;-1.472;2023-02-15T12:51:58;38.22;;;19.27;;
75234;SDS011;63817;51.228;-1.472;2023-02-15T12:54:37;32.65;;;19.58;;
75234;SDS011;63817;51.228;-1.472;2023-02-15T12:57:26;37.00;;;19.88;;
75234;SDS011;63817;51.228;-1.472;2023-02-15T13:00:04;28.73;;;18.85;;
75234;SDS011;63817;51.228;-1.472;2023-02-15T13:02:36;37.80;;;17.33;;
75234;SDS011;63817;51.228;-1.472;2023-02-15T13:10:35;29.35;;;16.05;;
75234;SDS011;63817;51.228;-1.472;2023-02-15T13:13:09;29.83;;;16.65;;
75234;SDS011;63817;51.228;-1.472;2023-02-15T13:15:36;26.63;;;15.50;;
75234;SDS011;63817;51.228;-1.472;2023-02-15T13:18:04;26.80;;;15.50;;
75234;SDS011;63817;51.228;-1.472;2023-02-15T13:20:31;25.38;;;14.48;;
75234;SDS011;63817;51.228;-1.472;2023-02-15T13:22:58;26.42;;;14.30;;
75234;SDS011;63817;51.228;-1.472;2023-02-15T13:25:28;28.25;;;15.00;;
75234;SDS011;63817;51.228;-1.472;2023-02-15T13:27:55;28.25;;;15.45;;
75234;SDS011;63817;51.228;-1.472;2023-02-15T13:30:35;26.27;;;14.70;;
75234;SDS011;63817;51.228;-1.472;2023-02-15T13:41:34;26.10;;;14.43;;
75234;SDS011;63817;51.228;-1.472;2023-02-15T13:44:20;25.35;;;14.48;;
75234;SDS011;63817;51.228;-1.472;2023-02-15T13:52:43;30.27;;;15.27;;
75234;SDS011;63817;51.228;-1.472;2023-02-15T13:55:33;25.77;;;15.38;;
75234;SDS011;63817;51.228;-1.472;2023-02-15T14:00:49;24.15;;;14.93;;
75234;SDS011;63817;51.228;-1.472;2023-02-15T14:03:51;30.58;;;16.25;;
75234;SDS011;63817;51.228;-1.472;2023-02-15T14:06:28;35.53;;;16.38;;
75234;SDS011;63817;51.228;-1.472;2023-02-15T14:11:41;35.10;;;16.40;;
75234;SDS011;63817;51.228;-1.472;2023-02-15T14:25:11;27.87;;;15.43;;
75234;SDS011;63817;51.228;-1.472;2023-02-15T14:30:20;35.70;;;17.17;;
75234;SDS011;63817;51.228;-1.472;2023-02-15T14:32:49;29.45;;;16.85;;
75234;SDS011;63817;51.228;-1.472;2023-02-15T14:35:21;29.60;;;16.30;;
75234;SDS011;63817;51.228;-1.472;2023-02-15T14:48:54;35.08;;;17.17;;
75234;SDS011;63817;51.228;-1.472;2023-02-15T14:54:08;33.75;;;14.85;;
75234;SDS011;63817;51.228;-1.472;2023-02-15T14:56:35;29.30;;;15.48;;
75234;SDS011;63817;51.228;-1.472;2023-02-15T14:59:11;35.42;;;15.68;;
75234;SDS011;63817;51.228;-1.472;2023-02-15T15:01:39;35.13;;;17.55;;
75234;SDS011;63817;51.228;-1.472;2023-02-15T15:06:38;24.08;;;14.55;;
75234;SDS011;63817;51.228;-1.472;2023-02-15T15:09:10;28.73;;;13.85;;
75234;SDS011;63817;51.228;-1.472;2023-02-15T15:11:37;35.58;;;15.15;;
75234;SDS011;63817;51.228;-1.472;2023-02-15T15:14:04;28.85;;;15.35;;
75234;SDS011;63817;51.228;-1.472;2023-02-15T15:19:07;33.17;;;15.07;;
75234;SDS011;63817;51.228;-1.472;2023-02-15T15:27:46;26.95;;;13.18;;
75234;SDS011;63817;51.228;-1.472;2023-02-15T15:33:02;30.05;;;12.50;;
75234;SDS011;63817;51.228;-1.472;2023-02-15T15:49:08;35.58;;;14.38;;
75234;SDS011;63817;51.228;-1.472;2023-02-15T15:51:39;21.67;;;13.15;;
75234;SDS011;63817;51.228;-1.472;2023-02-15T15:54:05;36.63;;;15.00;;
75234;SDS011;63817;51.228;-1.472;2023-02-15T15:56:32;33.30;;;12.55;;
75234;SDS011;63817;51.228;-1.472;2023-02-15T15:59:03;30.70;;;14.70;;
75234;SDS011;63817;51.228;-1.472;2023-02-15T16:01:31;28.55;;;13.02;;
75234;SDS011;63817;51.228;-1.472;2023-02-15T16:04:00;24.23;;;13.30;;
75234;SDS011;63817;51.228;-1.472;2023-02-15T16:06:35;40.88;;;13.35;;
75234;SDS011;63817;51.228;-1.472;2023-02-15T16:09:19;30.95;;;13.35;;
75234;SDS011;63817;51.228;-1.472;2023-02-15T16:11:52;34.58;;;13.13;;
75234;SDS011;63817;51.228;-1.472;2023-02-15T16:14:26;36.58;;;14.93;;
75234;SDS011;63817;51.228;-1.472;2023-02-15T16:16:56;30.50;;;14.93;;
75234;SDS011;63817;51.228;-1.472;2023-02-15T16:19:30;28.33;;;14.18;;
75234;SDS011;63817;51.228;-1.472;2023-02-15T16:21:58;48.67;;;14.68;;
75234;SDS011;63817;51.228;-1.472;2023-02-15T16:29:32;29.63;;;13.80;;
75234;SDS011;63817;51.228;-1.472;2023-02-15T16:34:25;116.57;;;21.20;;
75234;SDS011;63817;51.228;-1.472;2023-02-15T16:37:11;35.67;;;16.25;;
75234;SDS011;63817;51.228;-1.472;2023-02-15T16:39:40;32.13;;;15.27;;
75234;SDS011;63817;51.228;-1.472;2023-02-15T16:42:06;30.80;;;15.48;;
75234;SDS011;63817;51.228;-1.472;2023-02-15T16:44:32;34.05;;;14.80;;
75234;SDS011;63817;51.228;-1.472;2023-02-15T16:46:58;34.30;;;16.27;;
75234;SDS011;63817;51.228;-1.472;2023-02-15T16:49:25;36.83;;;18.40;;
75234;SDS011;63817;51.228;-1.472;2023-02-15T16:51:55;35.72;;;17.38;;
75234;SDS011;63817;51.228;-1.472;2023-02-15T16:54:21;38.20;;;18.40;;
75234;SDS011;63817;51.228;-1.472;2023-02-15T16:56:48;31.60;;;16.08;;
75234;SDS011;63817;51.228;-1.472;2023-02-15T17:02:21;33.42;;;16.58;;
75234;SDS011;63817;51.228;-1.472;2023-02-15T17:10:25;36.60;;;17.80;;
75234;SDS011;63817;51.228;-1.472;2023-02-15T17:12:52;31.60;;;15.82;;
75234;SDS011;63817;51.228;-1.472;2023-02-15T17:20:47;31.98;;;16.40;;
75234;SDS011;63817;51.228;-1.472;2023-02-15T17:26:13;29.30;;;15.80;;
75234;SDS011;63817;51.228;-1.472;2023-02-15T17:29:26;42.25;;;16.80;;
75234;SDS011;63817;51.228;-1.472;2023-02-15T17:31:37;30.58;;;15.27;;
75234;SDS011;63817;51.228;-1.472;2023-02-15T17:34:02;39.25;;;16.40;;
75234;SDS011;63817;51.228;-1.472;2023-02-15T17:36:29;38.80;;;15.85;;
75234;SDS011;63817;51.228;-1.472;2023-02-15T17:41:35;38.72;;;15.43;;
75234;SDS011;63817;51.228;-1.472;2023-02-15T17:44:02;29.02;;;14.85;;
75234;SDS011;63817;51.228;-1.472;2023-02-15T17:46:29;47.35;;;17.73;;
75234;SDS011;63817;51.228;-1.472;2023-02-15T17:48:59;32.60;;;14.93;;
75234;SDS011;63817;51.228;-1.472;2023-02-15T17:51:25;36.40;;;16.23;;
75234;SDS011;63817;51.228;-1.472;2023-02-15T17:53:50;32.15;;;15.75;;
75234;SDS011;63817;51.228;-1.472;2023-02-15T17:56:35;35.97;;;16.20;;
75234;SDS011;63817;51.228;-1.472;2023-02-15T17:59:01;40.70;;;15.32;;
75234;SDS011;63817;51.228;-1.472;2023-02-15T18:01:31;35.30;;;15.25;;
75234;SDS011;63817;51.228;-1.472;2023-02-15T18:04:16;35.90;;;16.67;;
75234;SDS011;63817;51.228;-1.472;2023-02-15T18:06:59;33.30;;;16.92;;
75234;SDS011;63817;51.228;-1.472;2023-02-15T18:09:43;51.38;;;17.17;;